Time;durP1;ratioP1;P1;durP2;ratioP2;P2;SDS_P1;SDS_P2;PMS_P1;PMS_P2;Temp;Humidity;BMP_temperature;BMP_pressure;BME280_temperature;BME280_humidity;BME280_pressure;Samples;Min_cycle;Max_cycle;Signal;HPM_P1;HPM_P2
2021/10/19 00:00:47;;;;;;;9.98;6.83;;;;;;;22.74;55.51;101722.49;1741372;80;21385;-51
2021/10/19 00:03:13;;;;;;;11.08;7.80;;;;;;;22.72;55.52;101720.02;1741336;81;20940;-51
2021/10/19 00:05:40;;;;;;;12.53;7.95;;;;;;;22.73;55.50;101717.50;1718246;81;21208;-50
2021/10/19 00:08:06;;;;;;;9.68;7.20;;;;;;;22.72;55.50;101720.02;1716829;81;21083;-51
2021/10/19 00:10:33;;;;;;;9.68;7.47;;;;;;;22.73;55.50;101716.12;1710965;81;21040;-49
2021/10/19 00:12:59;;;;;;;10.78;7.67;;;;;;;22.72;55.49;101714.47;1710638;81;21687;-50
2021/10/19 00:15:25;;;;;;;10.30;7.47;;;;;;;22.72;55.48;101711.69;1708465;81;21094;-51
2021/10/19 00:17:51;;;;;;;10.48;8.55;;;;;;;22.72;55.48;101717.24;1715728;81;21699;-50
2021/10/19 00:20:17;;;;;;;10.95;8.53;;;;;;;22.72;55.47;101715.03;1714278;82;20971;-49
2021/10/19 00:22:43;;;;;;;11.50;8.23;;;;;;;22.71;55.47;101714.20;1712343;82;21069;-52
2021/10/19 00:25:14;;;;;;;12.37;8.45;;;;;;;22.71;55.44;101712.81;1703457;81;21091;-49
2021/10/19 00:27:38;;;;;;;12.80;8.83;;;;;;;22.70;55.45;101707.60;1706135;81;22350;-47
2021/10/19 00:30:06;;;;;;;10.48;7.95;;;;;;;22.69;55.44;101708.16;1708742;80;22069;-50
2021/10/19 00:32:32;;;;;;;11.33;9.33;;;;;;;22.69;55.42;101699.02;1740064;81;21054;-50
2021/10/19 00:34:58;;;;;;;12.18;8.15;;;;;;;22.70;55.41;101703.44;1737745;80;21473;-48
2021/10/19 00:37:24;;;;;;;12.05;8.88;;;;;;;22.70;55.42;101707.01;1700885;82;20991;-50
2021/10/19 00:39:50;;;;;;;11.90;8.90;;;;;;;22.68;55.41;101707.87;1730275;80;21008;-49
2021/10/19 00:42:16;;;;;;;12.35;8.95;;;;;;;22.68;55.41;101712.03;1713822;81;22803;-49
2021/10/19 00:44:43;;;;;;;12.07;9.13;;;;;;;22.69;55.39;101711.50;1702617;81;21048;-51
2021/10/19 00:47:09;;;;;;;12.88;9.18;;;;;;;22.68;55.39;101707.87;1723997;81;21084;-51
2021/10/19 00:49:36;;;;;;;12.28;9.10;;;;;;;22.68;55.39;101713.98;1740590;80;21075;-52
2021/10/19 00:52:03;;;;;;;12.55;9.20;;;;;;;22.67;55.36;101704.83;1699043;81;21337;-50
2021/10/19 00:54:29;;;;;;;12.75;9.45;;;;;;;22.68;55.37;101702.88;1708433;82;21316;-50
2021/10/19 00:56:55;;;;;;;12.53;9.70;;;;;;;22.66;55.35;101710.11;1705960;82;21169;-50
2021/10/19 00:59:22;;;;;;;12.40;9.03;;;;;;;22.67;55.35;101715.09;1710770;81;21142;-51
2021/10/19 01:01:48;;;;;;;12.05;9.13;;;;;;;22.66;55.33;101712.89;1719575;81;21576;-50
2021/10/19 01:04:15;;;;;;;13.03;9.20;;;;;;;22.66;55.32;101714.28;1703727;81;21100;-49
2021/10/19 01:06:41;;;;;;;12.55;9.15;;;;;;;22.66;55.32;101709.32;1717729;81;21139;-49
2021/10/19 01:09:08;;;;;;;13.62;10.00;;;;;;;22.66;55.32;101707.94;1718430;81;20991;-48
2021/10/19 01:11:34;;;;;;;12.55;9.30;;;;;;;22.66;55.29;101704.56;1706645;81;21089;-50
2021/10/19 01:14:00;;;;;;;13.50;9.68;;;;;;;22.66;55.31;101701.00;1743289;80;21490;-52
2021/10/19 01:16:26;;;;;;;14.93;10.35;;;;;;;22.66;55.27;101698.23;1708444;81;21349;-49
2021/10/19 01:18:52;;;;;;;12.07;8.95;;;;;;;22.66;55.27;101703.77;1735240;80;21329;-47
2021/10/19 01:21:18;;;;;;;12.23;9.48;;;;;;;22.65;55.26;101700.73;1737563;81;21484;-50
2021/10/19 01:23:46;;;;;;;13.22;9.65;;;;;;;22.65;55.26;101696.02;1736141;81;21453;-47
2021/10/19 01:26:12;;;;;;;13.35;9.13;;;;;;;22.64;55.26;101695.75;1742644;80;21075;-50
2021/10/19 01:28:42;;;;;;;13.05;9.20;;;;;;;22.64;55.25;101697.70;1748291;80;21069;-50
2021/10/19 01:31:12;;;;;;;;;;;;;;;22.65;55.25;101695.19;1736073;80;21161;-47
2021/10/19 01:33:39;;;;;;;12.75;9.05;;;;;;;22.66;55.28;101700.41;1738747;80;20444;-50
2021/10/19 01:36:06;;;;;;;12.50;9.28;;;;;;;22.65;55.32;101699.34;1727258;81;21062;-51
2021/10/19 01:38:38;;;;;;;11.33;8.50;;;;;;;22.64;55.37;101706.02;1714631;81;21491;-51
2021/10/19 01:41:04;;;;;;;12.95;9.10;;;;;;;22.64;55.41;101708.23;1717410;81;21589;-50
2021/10/19 01:43:30;;;;;;;13.25;9.55;;;;;;;22.63;55.43;101713.52;1707605;81;21286;-49
2021/10/19 01:45:58;;;;;;;14.18;9.70;;;;;;;22.63;55.46;101716.85;1692727;83;21079;-51
2021/10/19 01:48:26;;;;;;;12.73;9.45;;;;;;;22.63;55.49;101721.02;1711401;81;21063;-50
2021/10/19 01:50:52;;;;;;;13.05;9.73;;;;;;;22.62;55.53;101725.73;1710208;82;21158;-52
2021/10/19 01:53:20;;;;;;;11.60;8.48;;;;;;;22.63;55.54;101732.94;1707162;82;21163;-49
2021/10/19 01:55:46;;;;;;;12.55;8.68;;;;;;;22.63;55.53;101734.32;1705377;82;21210;-48
2021/10/19 01:58:13;;;;;;;11.10;8.85;;;;;;;22.63;55.53;101727.95;1726680;81;21086;-49
2021/10/19 02:00:41;;;;;;;11.68;9.28;;;;;;;22.63;55.54;101727.95;1722910;80;21072;-47
2021/10/19 02:03:08;;;;;;;14.10;9.45;;;;;;;22.62;55.56;101736.83;1727125;80;21112;-45
2021/10/19 02:05:34;;;;;;;12.10;9.25;;;;;;;22.61;55.56;101741.32;1749607;80;21083;-50
2021/10/19 02:08:03;;;;;;;14.45;9.63;;;;;;;22.62;55.58;101738.78;1735068;80;21462;-48
2021/10/19 02:10:31;;;;;;;12.00;9.70;;;;;;;22.61;55.55;101738.55;1752250;80;21453;-48
2021/10/19 02:12:57;;;;;;;12.03;8.80;;;;;;;22.62;55.55;101749.31;1740178;80;21067;-50
2021/10/19 02:15:28;;;;;;;13.60;9.60;;;;;;;22.61;55.57;101747.69;1735838;80;21291;-52
2021/10/19 02:17:52;;;;;;;13.95;9.75;;;;;;;22.61;55.58;101753.23;1726956;81;21102;-50
2021/10/19 02:20:18;;;;;;;12.98;9.28;;;;;;;22.60;55.57;101743.83;1741422;81;21254;-48
2021/10/19 02:22:44;;;;;;;11.05;8.40;;;;;;;22.59;55.57;101745.78;1748320;80;20968;-51
2021/10/19 02:25:10;;;;;;;13.13;9.60;;;;;;;22.60;55.61;101756.31;1754680;80;21146;-51
2021/10/19 02:27:36;;;;;;;12.47;9.88;;;;;;;22.59;55.58;101750.50;1743983;80;20912;-52
2021/10/19 02:30:05;;;;;;;11.70;8.68;;;;;;;22.59;55.58;101754.09;1739583;80;21091;-52
2021/10/19 02:32:31;;;;;;;12.90;8.90;;;;;;;22.59;55.58;101759.64;1740256;80;22109;-52
2021/10/19 02:34:57;;;;;;;12.90;9.35;;;;;;;22.59;55.58;101762.42;1736667;80;21012;-49
2021/10/19 02:37:23;;;;;;;12.05;9.40;;;;;;;22.59;55.57;101761.59;1721696;81;21025;-48
2021/10/19 02:39:49;;;;;;;13.35;9.55;;;;;;;22.59;55.56;101762.42;1740224;80;21648;-48
2021/10/19 02:42:15;;;;;;;11.57;8.80;;;;;;;22.59;55.55;101761.59;1719244;81;21115;-51
2021/10/19 02:44:41;;;;;;;15.55;9.63;;;;;;;22.59;55.54;101759.64;1725088;80;21318;-48
2021/10/19 02:47:07;;;;;;;10.65;8.20;;;;;;;22.58;55.52;101769.09;1752529;80;21008;-51
2021/10/19 02:49:34;;;;;;;12.35;9.13;;;;;;;22.58;55.49;101764.93;1709752;81;21000;-48
2021/10/19 02:52:00;;;;;;;12.70;9.00;;;;;;;22.60;55.47;101767.41;1692683;82;21012;-49
2021/10/19 02:54:26;;;;;;;12.35;8.60;;;;;;;22.59;55.45;101772.13;1724658;81;21249;-49
2021/10/19 02:56:52;;;;;;;10.95;8.65;;;;;;;22.57;55.44;101775.79;1730637;80;21073;-49
2021/10/19 02:59:18;;;;;;;11.73;8.65;;;;;;;22.57;55.45;101777.17;1753039;80;20900;-50
2021/10/19 03:01:44;;;;;;;11.30;8.60;;;;;;;22.57;55.43;101779.13;1738685;80;20895;-49
2021/10/19 03:04:10;;;;;;;11.40;9.00;;;;;;;22.57;55.44;101774.41;1737704;80;21480;-54
2021/10/19 03:06:36;;;;;;;11.85;9.13;;;;;;;22.58;55.42;101779.36;1724022;80;21008;-48
2021/10/19 03:09:02;;;;;;;11.45;8.28;;;;;;;22.58;55.42;101782.95;1734930;80;21045;-49
2021/10/19 03:11:28;;;;;;;8.33;7.00;;;;;;;22.61;55.35;101779.59;1740791;80;21621;-50
2021/10/19 03:13:54;;;;;;;8.63;6.60;;;;;;;22.63;55.29;101778.70;1749236;80;21111;-53
2021/10/19 03:16:21;;;;;;;8.15;6.08;;;;;;;22.66;55.22;101785.01;1739753;80;20908;-51
2021/10/19 03:18:49;;;;;;;8.78;6.45;;;;;;;22.68;55.16;101782.77;1744297;80;21465;-51
2021/10/19 03:21:16;;;;;;;7.58;6.12;;;;;;;22.71;55.11;101787.72;1735427;81;21543;-49
2021/10/19 03:23:42;;;;;;;8.28;5.92;;;;;;;22.74;55.05;101791.25;1723574;80;21056;-51
2021/10/19 03:26:08;;;;;;;8.80;6.28;;;;;;;22.76;55.03;101798.72;1747629;80;21711;-48
2021/10/19 03:28:34;;;;;;;8.25;6.20;;;;;;;22.79;54.96;101799.25;1728223;80;21432;-49
2021/10/19 03:31:00;;;;;;;7.87;6.15;;;;;;;22.80;54.90;101795.31;1751004;80;21075;-50
2021/10/19 03:33:26;;;;;;;9.98;6.85;;;;;;;22.82;54.86;101799.45;1707231;82;21877;-49
2021/10/19 03:35:52;;;;;;;8.88;6.53;;;;;;;22.83;54.83;101794.72;1723095;81;20996;-48
2021/10/19 03:38:19;;;;;;;8.38;6.50;;;;;;;22.85;54.81;101804.37;1737931;80;21040;-48
2021/10/19 03:40:45;;;;;;;9.38;6.58;;;;;;;22.87;54.77;101807.67;1740709;80;21070;-48
2021/10/19 03:43:11;;;;;;;8.85;6.35;;;;;;;22.90;54.74;101815.93;1732577;80;20932;-50
2021/10/19 03:45:37;;;;;;;8.45;6.40;;;;;;;22.91;54.72;101810.64;1733406;81;21335;-51
2021/10/19 03:48:04;;;;;;;8.10;6.50;;;;;;;22.92;54.70;101809.49;1731222;80;20908;-48
2021/10/19 03:50:30;;;;;;;8.15;5.83;;;;;;;22.95;54.68;101813.88;1737340;80;21524;-52
2021/10/19 03:52:57;;;;;;;7.97;5.70;;;;;;;22.96;54.64;101816.06;1720066;80;21201;-48
2021/10/19 03:55:24;;;;;;;9.18;6.05;;;;;;;22.98;54.65;101818.80;1710683;81;21031;-48
2021/10/19 03:57:51;;;;;;;6.95;5.53;;;;;;;23.00;54.63;101822.08;1714469;81;21315;-47
2021/10/19 04:00:17;;;;;;;6.92;4.87;;;;;;;23.02;54.60;101821.78;1732691;80;21099;-47
2021/10/19 04:02:43;;;;;;;6.80;5.30;;;;;;;23.04;54.59;101827.86;1733124;81;21112;-51
2021/10/19 04:05:09;;;;;;;6.28;4.83;;;;;;;23.05;54.58;101821.98;1731042;80;21038;-50
2021/10/19 04:07:35;;;;;;;7.05;4.67;;;;;;;23.07;54.56;101827.23;1739738;80;21070;-50
2021/10/19 04:10:03;;;;;;;7.40;4.83;;;;;;;23.07;54.55;101825.28;1731402;80;21120;-50
2021/10/19 04:12:29;;;;;;;7.50;5.00;;;;;;;23.08;54.55;101821.38;1734915;80;21109;-48
2021/10/19 04:14:55;;;;;;;9.65;5.53;;;;;;;23.10;54.55;101826.60;1718791;81;21567;-55
2021/10/19 04:17:21;;;;;;;14.58;7.50;;;;;;;23.11;54.54;101833.80;1728593;80;21076;-55
2021/10/19 04:19:48;;;;;;;9.70;5.97;;;;;;;23.12;54.56;101829.91;1720062;81;21569;-48
2021/10/19 04:22:14;;;;;;;7.50;5.20;;;;;;;23.14;54.57;101837.34;1712498;81;21350;-51
2021/10/19 04:24:41;;;;;;;6.35;5.12;;;;;;;23.15;54.55;101834.83;1722786;81;21577;-48
2021/10/19 04:27:07;;;;;;;6.67;4.85;;;;;;;23.15;54.56;101841.77;1718688;81;21020;-51
2021/10/19 04:29:33;;;;;;;6.65;5.08;;;;;;;23.16;54.55;101832.31;1713801;81;21016;-49
2021/10/19 04:31:59;;;;;;;7.05;5.28;;;;;;;23.16;54.55;101834.53;1708553;81;21494;-54
2021/10/19 04:34:25;;;;;;;6.28;4.75;;;;;;;23.17;54.58;101838.09;1723522;81;21732;-46
2021/10/19 04:36:51;;;;;;;10.75;5.87;;;;;;;23.18;54.60;101841.14;1719681;81;21015;-49
2021/10/19 04:39:17;;;;;;;10.15;6.00;;;;;;;23.18;54.59;101841.14;1708083;81;21209;-49
2021/10/19 04:41:44;;;;;;;6.55;4.15;;;;;;;23.18;54.60;101846.13;1711915;81;20884;-48
2021/10/19 04:44:11;;;;;;;8.18;5.17;;;;;;;23.18;54.62;101844.73;1722331;81;21075;-48
2021/10/19 04:46:38;;;;;;;13.85;6.47;;;;;;;23.19;54.63;101852.50;1724591;81;21142;-49
2021/10/19 04:49:04;;;;;;;8.93;5.25;;;;;;;23.20;54.63;101860.53;1717274;81;21071;-50
2021/10/19 04:51:30;;;;;;;14.45;5.50;;;;;;;23.20;54.66;101863.87;1715162;80;21013;-51
2021/10/19 04:53:56;;;;;;;16.60;7.30;;;;;;;23.20;54.66;101869.42;1714412;81;21065;-48
2021/10/19 04:56:23;;;;;;;11.83;5.95;;;;;;;23.19;54.68;101867.21;1705329;81;21581;-48
2021/10/19 04:58:49;;;;;;;12.23;6.92;;;;;;;23.20;54.72;101865.27;1723507;81;21485;-46
2021/10/19 05:01:15;;;;;;;12.03;7.03;;;;;;;23.21;54.75;101868.30;1716671;81;21080;-49
2021/10/19 05:03:46;;;;;;;31.68;11.93;;;;;;;23.23;54.79;101864.63;1714083;81;21198;-47
2021/10/19 05:06:09;;;;;;;17.35;7.25;;;;;;;23.26;54.94;101869.56;1721745;81;21122;-51
2021/10/19 05:08:35;;;;;;;15.83;6.78;;;;;;;23.30;55.11;101874.75;1721684;81;21753;-51
2021/10/19 05:11:01;;;;;;;19.20;8.25;;;;;;;23.35;55.23;101876.59;1717384;82;21507;-51
2021/10/19 05:13:27;;;;;;;7.03;5.05;;;;;;;23.36;55.31;101873.52;1712482;81;21064;-53
2021/10/19 05:15:54;;;;;;;9.58;5.80;;;;;;;23.39;55.33;101867.33;1716452;81;21031;-56
2021/10/19 05:18:20;;;;;;;9.30;5.78;;;;;;;23.42;55.28;101870.89;1714091;81;21040;-52
2021/10/19 05:20:46;;;;;;;11.38;5.95;;;;;;;23.44;55.22;101883.92;1726884;81;21737;-52
2021/10/19 05:23:12;;;;;;;12.93;7.17;;;;;;;23.45;55.16;101889.73;1721972;81;21342;-52
2021/10/19 05:25:38;;;;;;;12.98;6.40;;;;;;;23.48;55.12;101898.83;1704519;82;21068;-52
2021/10/19 05:28:04;;;;;;;12.93;7.10;;;;;;;23.49;55.06;101897.70;1724912;81;21058;-52
2021/10/19 05:30:30;;;;;;;17.77;6.80;;;;;;;23.50;55.03;101897.14;1719556;82;21098;-52
2021/10/19 05:32:56;;;;;;;12.03;6.55;;;;;;;23.49;54.99;101894.92;1722502;81;21145;-52
2021/10/19 05:35:22;;;;;;;14.05;6.03;;;;;;;23.50;54.96;101903.52;1717264;81;21335;-49
2021/10/19 05:37:48;;;;;;;11.05;5.00;;;;;;;23.50;54.92;101899.92;1708319;81;21702;-52
2021/10/19 05:40:14;;;;;;;8.63;4.60;;;;;;;23.49;54.91;101907.42;1728312;81;21093;-52
2021/10/19 05:42:40;;;;;;;10.38;5.75;;;;;;;23.47;54.89;101913.84;1718131;81;20953;-53
2021/10/19 05:45:08;;;;;;;11.97;5.58;;;;;;;23.46;54.87;101915.00;1716544;81;21672;-54
2021/10/19 05:47:34;;;;;;;7.30;5.05;;;;;;;23.45;54.87;101918.91;1721855;81;21297;-52
2021/10/19 05:50:00;;;;;;;12.68;5.75;;;;;;;23.43;54.88;101921.16;1712819;81;21140;-51
2021/10/19 05:52:27;;;;;;;10.90;5.33;;;;;;;23.43;54.88;101935.57;1722326;81;21106;-52
2021/10/19 05:54:53;;;;;;;11.15;6.10;;;;;;;23.41;54.89;101928.95;1718869;82;21019;-50
2021/10/19 05:57:19;;;;;;;10.15;5.15;;;;;;;23.40;54.89;101938.41;1720795;81;21458;-51
2021/10/19 05:59:45;;;;;;;8.10;4.33;;;;;;;23.40;54.91;101944.53;1718548;81;21299;-51
2021/10/19 06:02:11;;;;;;;8.20;4.95;;;;;;;23.39;54.92;101945.66;1715341;81;20921;-51
2021/10/19 06:04:37;;;;;;;8.18;4.10;;;;;;;23.37;54.93;101950.16;1719997;82;21743;-51
2021/10/19 06:07:03;;;;;;;9.03;5.15;;;;;;;23.36;54.94;101947.11;1720757;81;21154;-52
2021/10/19 06:09:30;;;;;;;7.70;4.60;;;;;;;23.34;54.95;101951.34;1709935;82;21183;-52
2021/10/19 06:11:56;;;;;;;11.40;5.35;;;;;;;23.35;54.95;101957.12;1700414;81;21222;-52
2021/10/19 06:14:23;;;;;;;6.45;4.55;;;;;;;23.33;54.97;101957.45;1720110;81;21170;-52
2021/10/19 06:16:50;;;;;;;9.20;5.33;;;;;;;23.32;54.99;101958.58;1717957;81;21487;-52
2021/10/19 06:19:16;;;;;;;9.23;5.20;;;;;;;23.33;55.02;101963.57;1713652;81;21068;-51
2021/10/19 06:21:42;;;;;;;6.72;5.08;;;;;;;23.31;55.03;101960.27;1708846;81;21757;-52
2021/10/19 06:24:09;;;;;;;6.33;4.95;;;;;;;23.29;55.06;101959.77;1717813;81;21347;-52
2021/10/19 06:26:35;;;;;;;6.60;4.10;;;;;;;23.29;55.06;101964.76;1723298;81;21462;-51
2021/10/19 06:29:07;;;;;;;8.33;4.85;;;;;;;23.28;55.10;101966.44;1735462;80;21070;-51
2021/10/19 06:31:34;;;;;;;8.60;4.37;;;;;;;23.28;55.09;101966.44;1746895;79;21122;-51
2021/10/19 06:34:00;;;;;;;7.53;5.22;;;;;;;23.26;55.10;101965.35;1742891;80;21520;-48
2021/10/19 06:36:26;;;;;;;8.95;5.10;;;;;;;23.25;55.12;101972.06;1729097;80;21178;-48
2021/10/19 06:38:53;;;;;;;8.13;4.40;;;;;;;23.24;55.14;101975.95;1718601;80;21617;-52
2021/10/19 06:41:19;;;;;;;7.62;4.42;;;;;;;23.23;55.13;101978.47;1719634;81;21062;-56
2021/10/19 06:43:45;;;;;;;8.15;4.80;;;;;;;23.23;55.15;101974.30;1726594;80;20923;-48
2021/10/19 06:46:11;;;;;;;6.67;4.58;;;;;;;23.22;55.16;101983.20;1732890;81;21576;-50
2021/10/19 06:48:38;;;;;;;7.12;4.33;;;;;;;23.22;55.17;101980.98;1733795;81;21284;-52
2021/10/19 06:51:05;;;;;;;7.62;4.58;;;;;;;23.21;55.16;101991.85;1748171;80;21548;-53
2021/10/19 06:53:33;;;;;;;8.70;4.90;;;;;;;23.20;55.19;101992.41;1718926;81;21019;-51
2021/10/19 06:55:59;;;;;;;7.72;4.65;;;;;;;23.20;55.18;101988.81;1751999;80;21049;-51
2021/10/19 06:58:25;;;;;;;7.95;4.50;;;;;;;23.19;55.19;101989.37;1748174;81;21060;-52
2021/10/19 07:00:53;;;;;;;7.55;4.87;;;;;;;23.18;55.21;102000.21;1738383;80;22225;-51
2021/10/19 07:03:19;;;;;;;7.42;4.40;;;;;;;23.17;55.19;101995.78;1734779;80;21046;-53
2021/10/19 07:05:46;;;;;;;5.90;4.22;;;;;;;23.17;55.21;102004.67;1738944;80;21118;-52
2021/10/19 07:08:12;;;;;;;6.30;3.95;;;;;;;23.15;55.23;102009.16;1730728;81;21073;-53
2021/10/19 07:10:40;;;;;;;8.78;4.05;;;;;;;23.14;55.23;102011.67;1724563;81;21399;-53
2021/10/19 07:13:06;;;;;;;5.70;4.12;;;;;;;23.13;55.24;102008.63;1717477;81;21941;-51
2021/10/19 07:15:36;;;;;;;6.53;4.10;;;;;;;23.13;55.23;102010.58;1731427;81;21244;-52
2021/10/19 07:18:03;;;;;;;6.17;4.08;;;;;;;23.13;55.22;102009.19;1719586;81;21089;-51
2021/10/19 07:20:29;;;;;;;6.97;4.10;;;;;;;23.14;55.22;102015.01;1718038;81;21084;-51
2021/10/19 07:22:56;;;;;;;7.75;4.22;;;;;;;23.14;55.21;102021.95;1709601;80;21015;-52
2021/10/19 07:25:22;;;;;;;6.95;4.72;;;;;;;23.13;55.18;102018.34;1711954;82;21038;-52
2021/10/19 07:27:48;;;;;;;5.30;3.45;;;;;;;23.13;55.17;102016.95;1713205;81;20965;-52
2021/10/19 07:30:17;;;;;;;6.47;4.15;;;;;;;23.13;55.16;102020.30;1721037;80;21034;-51
2021/10/19 07:32:44;;;;;;;5.22;3.98;;;;;;;23.13;55.15;102019.73;1720533;81;21072;-53
2021/10/19 07:35:10;;;;;;;5.35;3.70;;;;;;;23.12;55.13;102014.51;1742270;81;21502;-51
2021/10/19 07:37:38;;;;;;;6.67;3.83;;;;;;;23.13;55.09;102017.52;1721953;81;21239;-51
2021/10/19 07:40:07;;;;;;;7.40;4.33;;;;;;;23.13;55.08;102018.91;1707470;82;21103;-52
2021/10/19 07:42:34;;;;;;;5.55;3.65;;;;;;;23.11;55.05;102015.07;1733137;81;21798;-51
2021/10/19 07:45:04;;;;;;;7.12;4.00;;;;;;;23.12;55.04;102020.89;1726721;81;21124;-51
2021/10/19 07:47:30;;;;;;;4.90;3.58;;;;;;;23.12;55.03;102023.66;1731289;81;21052;-52
2021/10/19 07:49:56;;;;;;;5.67;3.70;;;;;;;23.11;55.04;102014.23;1735602;80;21639;-51
2021/10/19 07:52:22;;;;;;;5.65;3.87;;;;;;;23.12;55.00;102015.34;1730807;80;20951;-51
2021/10/19 07:54:48;;;;;;;5.70;3.70;;;;;;;23.12;55.00;102022.27;1736114;81;21031;-50
2021/10/19 07:57:14;;;;;;;5.83;3.80;;;;;;;23.13;54.98;102021.13;1732443;81;20992;-51
2021/10/19 07:59:40;;;;;;;7.10;3.60;;;;;;;23.13;54.96;102030.84;1731250;81;21696;-50
2021/10/19 08:02:07;;;;;;;4.53;3.12;;;;;;;23.13;54.93;102031.40;1733833;81;22113;-51
2021/10/19 08:04:33;;;;;;;3.62;2.85;;;;;;;23.13;54.92;102028.62;1730326;80;21075;-52
2021/10/19 08:06:59;;;;;;;4.67;3.12;;;;;;;23.14;54.91;102034.44;1733333;80;21181;-52
2021/10/19 08:09:25;;;;;;;3.80;3.20;;;;;;;23.14;54.90;102035.83;1718353;82;21098;-51
2021/10/19 08:11:52;;;;;;;3.77;2.83;;;;;;;23.14;54.88;102033.88;1703662;81;21135;-50
2021/10/19 08:14:18;;;;;;;5.67;3.60;;;;;;;23.14;54.87;102033.88;1741687;80;21139;-52
2021/10/19 08:16:44;;;;;;;5.87;2.92;;;;;;;23.14;54.87;102033.88;1713624;81;21065;-51
2021/10/19 08:19:11;;;;;;;4.58;3.33;;;;;;;23.14;54.85;102029.72;1741298;80;21504;-49
2021/10/19 08:21:37;;;;;;;4.47;3.17;;;;;;;23.15;54.82;102024.99;1704077;82;21452;-48
2021/10/19 08:24:03;;;;;;;4.25;2.95;;;;;;;23.15;54.82;102026.37;1723005;81;21003;-47
2021/10/19 08:26:30;;;;;;;6.37;3.33;;;;;;;23.14;54.81;102021.95;1739786;80;21141;-51
2021/10/19 08:28:58;;;;;;;6.40;3.30;;;;;;;23.15;54.78;102022.22;1721010;80;21626;-48
2021/10/19 08:31:25;;;;;;;4.00;3.12;;;;;;;23.15;54.76;102023.05;1728489;80;21092;-47
2021/10/19 08:33:52;;;;;;;5.00;3.40;;;;;;;23.14;54.75;102020.00;1721996;80;21106;-49
2021/10/19 08:36:18;;;;;;;4.17;3.17;;;;;;;23.15;54.74;102018.05;1729785;80;21613;-50
2021/10/19 08:38:45;;;;;;;4.55;3.02;;;;;;;23.16;54.69;102023.88;1738785;80;22170;-51
2021/10/19 08:41:11;;;;;;;4.17;3.15;;;;;;;23.16;54.68;102018.32;1739831;80;21022;-51
2021/10/19 08:43:38;;;;;;;4.92;3.42;;;;;;;23.15;54.67;102021.66;1742559;80;21651;-48
2021/10/19 08:46:07;;;;;;;3.55;2.60;;;;;;;23.15;54.66;102015.28;1740802;80;20974;-50
2021/10/19 08:48:33;;;;;;;3.35;2.55;;;;;;;23.16;54.63;102015.55;1723561;80;21047;-50
2021/10/19 08:50:59;;;;;;;3.70;2.80;;;;;;;23.15;54.62;102020.27;1730169;81;21163;-48
2021/10/19 08:53:26;;;;;;;4.05;2.87;;;;;;;23.16;54.61;102021.09;1728433;81;21209;-50
2021/10/19 08:55:52;;;;;;;3.62;2.77;;;;;;;23.17;54.58;102019.94;1717368;81;21143;-50
2021/10/19 08:58:18;;;;;;;3.12;2.70;;;;;;;23.16;54.59;102019.14;1723501;81;21055;-51
2021/10/19 09:00:44;;;;;;;3.58;2.98;;;;;;;23.17;54.54;102020.77;1721725;81;22292;-50
2021/10/19 09:03:11;;;;;;;3.75;2.35;;;;;;;23.17;54.53;102019.94;1691958;81;21244;-48
2021/10/19 09:05:37;;;;;;;4.17;2.40;;;;;;;23.17;54.49;102018.55;1715904;81;21115;-49
2021/10/19 09:08:07;;;;;;;2.75;2.37;;;;;;;23.17;54.49;102018.55;1720951;81;21117;-51
2021/10/19 09:10:36;;;;;;;2.90;2.22;;;;;;;23.18;54.47;102017.43;1724850;81;21024;-50
2021/10/19 09:13:05;;;;;;;3.08;2.47;;;;;;;23.18;54.46;102014.66;1718715;81;21707;-50
2021/10/19 09:15:33;;;;;;;5.80;2.50;;;;;;;23.17;54.44;102017.99;1724323;81;21560;-50
2021/10/19 09:18:10;;;;;;;4.17;2.72;;;;;;;23.17;54.41;102017.99;1713298;81;21105;-50
2021/10/19 09:20:42;;;;;;;4.97;2.50;;;;;;;23.18;54.40;102017.43;1720209;81;21128;-51
2021/10/19 09:23:09;;;;;;;3.52;2.65;;;;;;;23.18;54.37;102016.05;1736938;80;21025;-51
2021/10/19 09:25:39;;;;;;;3.15;2.40;;;;;;;23.17;54.38;102019.38;1722304;81;21082;-50
2021/10/19 09:28:08;;;;;;;3.33;2.50;;;;;;;23.18;54.34;102022.98;1713736;80;21307;-49
2021/10/19 09:30:47;;;;;;;3.85;2.20;;;;;;;23.15;54.33;102013.89;1724076;81;21060;-50
2021/10/19 09:33:20;;;;;;;4.20;2.67;;;;;;;23.19;54.33;102021.86;1713518;81;21070;-51
2021/10/19 09:35:51;;;;;;;3.12;2.35;;;;;;;23.18;54.31;102022.98;1733602;80;21733;-52
2021/10/19 09:38:17;;;;;;;3.33;2.60;;;;;;;23.17;54.28;102022.16;1745307;80;21085;-52
2021/10/19 09:40:48;;;;;;;3.40;2.45;;;;;;;23.17;54.27;102015.22;1743239;79;21523;-47
2021/10/19 09:43:18;;;;;;;2.87;2.10;;;;;;;23.18;54.25;102016.05;1722568;80;21058;-49
2021/10/19 09:45:46;;;;;;;3.75;2.65;;;;;;;23.17;54.26;102016.60;1718864;81;21082;-53
2021/10/19 09:48:31;;;;;;;3.65;2.58;;;;;;;23.17;54.24;102014.39;1732927;81;21200;-49
2021/10/19 09:50:55;;;;;;;3.22;2.52;;;;;;;23.17;54.21;102014.39;1719372;81;21066;-50
2021/10/19 09:53:24;;;;;;;2.85;2.20;;;;;;;23.17;54.22;102019.38;1722115;81;21150;-48
2021/10/19 09:55:51;;;;;;;3.90;2.58;;;;;;;23.17;54.21;102013.00;1694275;82;21176;-52
2021/10/19 09:58:21;;;;;;;3.00;2.08;;;;;;;23.17;54.24;102018.55;1732111;80;21202;-50
2021/10/19 10:00:47;;;;;;;3.10;2.20;;;;;;;23.17;54.24;102012.44;1709260;82;21049;-50
2021/10/19 10:03:14;;;;;;;2.20;1.75;;;;;;;23.17;54.20;102008.84;1688407;82;21832;-51
2021/10/19 10:05:40;;;;;;;3.42;2.10;;;;;;;23.17;54.19;102004.67;1711259;81;21777;-49
2021/10/19 10:08:11;;;;;;;3.80;2.50;;;;;;;23.16;54.18;102003.88;1728597;81;21482;-52
2021/10/19 10:10:37;;;;;;;4.55;2.35;;;;;;;23.17;54.21;101996.34;1720853;81;21082;-55
2021/10/19 10:13:06;;;;;;;3.22;2.37;;;;;;;23.17;54.19;101993.56;1741769;81;21613;-49
2021/10/19 10:15:34;;;;;;;2.50;1.87;;;;;;;23.17;54.19;101990.79;1712205;81;21065;-49
2021/10/19 10:18:03;;;;;;;2.70;2.10;;;;;;;23.16;54.15;101987.22;1720365;81;21921;-52
2021/10/19 10:20:46;;;;;;;2.67;2.10;;;;;;;23.17;54.14;101993.56;1709118;81;21244;-51
2021/10/19 10:23:20;;;;;;;2.95;2.37;;;;;;;23.17;54.14;101989.41;1752045;80;21633;-51
2021/10/19 10:25:53;;;;;;;4.15;2.12;;;;;;;23.17;54.12;101983.85;1735599;80;21116;-49
2021/10/19 10:28:31;;;;;;;2.83;2.20;;;;;;;23.16;54.09;101981.66;1737532;81;21093;-50
2021/10/19 10:31:00;;;;;;;3.83;1.95;;;;;;;23.16;54.08;101979.45;1742440;80;22032;-52
2021/10/19 10:33:40;;;;;;;2.83;1.80;;;;;;;23.15;54.09;101974.46;1737605;80;21105;-51
2021/10/19 10:36:11;;;;;;;2.62;1.87;;;;;;;23.15;54.07;101971.69;1723935;81;21056;-50
2021/10/19 10:38:41;;;;;;;2.70;2.15;;;;;;;23.15;54.07;101973.07;1738230;80;21528;-52
2021/10/19 10:41:13;;;;;;;3.55;2.27;;;;;;;23.15;54.05;101965.30;1720709;81;21067;-52
2021/10/19 10:43:39;;;;;;;3.20;2.15;;;;;;;23.15;54.02;101973.07;1736540;81;22122;-52
2021/10/19 10:46:14;;;;;;;3.35;2.40;;;;;;;23.15;54.05;101979.19;1735753;80;37635;-52
2021/10/19 10:48:40;;;;;;;3.00;2.22;;;;;;;23.15;54.04;101974.46;1738501;81;21711;-51
2021/10/19 10:51:08;;;;;;;3.95;2.30;;;;;;;23.16;54.02;101971.12;1741967;80;21085;-53
2021/10/19 10:53:45;;;;;;;2.95;2.05;;;;;;;23.16;54.01;101966.39;1751911;80;21159;-53
2021/10/19 10:56:13;;;;;;;2.58;1.75;;;;;;;23.16;54.02;101969.73;1726689;81;21131;-51
2021/10/19 10:58:40;;;;;;;4.30;2.02;;;;;;;23.16;54.00;101969.73;1736503;80;21076;-49
2021/10/19 11:01:28;;;;;;;2.60;1.70;;;;;;;23.16;53.98;101964.18;1737900;80;21348;-51
2021/10/19 11:04:06;;;;;;;2.90;2.02;;;;;;;23.16;53.98;101965.57;1724533;81;21147;-50
2021/10/19 11:06:33;;;;;;;2.70;2.00;;;;;;;23.17;53.95;101961.64;1728104;81;21075;-52
2021/10/19 11:09:06;;;;;;;4.85;2.10;;;;;;;23.17;53.91;101961.64;1731588;81;21496;-50
2021/10/19 11:11:37;;;;;;;2.52;2.00;;;;;;;23.18;53.92;101960.52;1720295;81;21043;-51
2021/10/19 11:14:05;;;;;;;2.50;1.95;;;;;;;23.17;53.88;101955.52;1739501;80;21028;-49
2021/10/19 11:16:39;;;;;;;3.00;2.20;;;;;;;23.17;53.90;101954.14;1729220;80;21588;-50
2021/10/19 11:19:28;;;;;;;2.55;1.90;;;;;;;23.18;53.87;101951.63;1724879;80;21489;-52
2021/10/19 11:22:12;;;;;;;3.67;1.98;;;;;;;23.18;53.86;101948.84;1745488;80;23130;-52